Time;durP1;ratioP1;P1;durP2;ratioP2;P2;SDS_P1;SDS_P2;PMS_P1;PMS_P2;Temp;Humidity;BMP_temperature;BMP_pressure;BME280_temperature;BME280_humidity;BME280_pressure;Samples;Min_cycle;Max_cycle;Signal;HPM_P1;HPM_P2
2021/12/08 00:00:17;;;;;;;7.23;2.60;;;;;;;-145.18;100.00;60484.78;5023041;28;20268;-67
2021/12/08 00:02:43;;;;;;;7.68;2.47;;;;;;;-145.18;100.00;60484.78;5020088;28;20264;-67
2021/12/08 00:05:10;;;;;;;5.60;1.40;;;;;;;-145.18;100.00;60484.78;5022496;28;20046;-67
2021/12/08 00:07:36;;;;;;;5.03;1.70;;;;;;;-145.18;100.00;60484.78;5020033;28;20867;-68
2021/12/08 00:10:29;;;;;;;4.23;2.00;;;;;;;-145.18;100.00;60484.78;5022588;28;20272;-67
2021/12/08 00:13:06;;;;;;;4.75;1.40;;;;;;;-145.18;100.00;60484.78;5021836;28;20489;-67
2021/12/08 00:15:33;;;;;;;6.20;1.80;;;;;;;-145.18;100.00;60484.78;5022140;28;20041;-67
2021/12/08 00:18:00;;;;;;;4.03;1.67;;;;;;;-145.18;100.00;60484.78;5022626;28;20655;-67
2021/12/08 00:20:30;;;;;;;5.80;2.07;;;;;;;-145.18;100.00;60484.78;5022340;28;20276;-67
2021/12/08 00:22:56;;;;;;;7.33;2.53;;;;;;;-145.18;100.00;60484.78;5022970;28;20305;-67
2021/12/08 00:25:21;;;;;;;7.33;2.13;;;;;;;-145.18;100.00;60484.78;5022451;28;20272;-67
2021/12/08 00:27:47;;;;;;;5.63;1.77;;;;;;;-145.18;100.00;60484.78;5023219;28;20712;-67
2021/12/08 00:30:12;;;;;;;3.77;1.50;;;;;;;-145.18;100.00;60484.78;5021879;28;20087;-66
2021/12/08 00:32:38;;;;;;;6.87;1.80;;;;;;;-145.18;100.00;60484.78;5023460;28;20060;-66
2021/12/08 00:35:06;;;;;;;3.37;1.70;;;;;;;-145.18;100.00;60484.78;5021258;28;20428;-66
2021/12/08 00:37:31;;;;;;;4.73;1.63;;;;;;;-145.18;100.00;60484.78;5022717;28;20037;-66
2021/12/08 00:39:57;;;;;;;8.23;1.80;;;;;;;-145.18;100.00;60484.78;5016612;28;20269;-66
2021/12/08 00:42:23;;;;;;;4.40;1.60;;;;;;;-145.18;100.00;60484.78;5014585;28;20021;-66
2021/12/08 00:44:48;;;;;;;3.60;1.30;;;;;;;-145.18;100.00;60484.78;5021120;28;20405;-67
2021/12/08 00:47:14;;;;;;;3.43;2.00;;;;;;;-145.18;100.00;60484.78;5023186;28;20075;-66
2021/12/08 00:49:40;;;;;;;5.00;1.83;;;;;;;-145.18;100.00;60484.78;5023148;28;20076;-66
2021/12/08 00:52:07;;;;;;;5.43;1.87;;;;;;;-145.18;100.00;60484.78;5019523;28;20820;-66
2021/12/08 00:54:32;;;;;;;3.47;1.33;;;;;;;-145.18;100.00;60484.78;5019194;28;20397;-67
2021/12/08 00:57:00;;;;;;;4.87;1.67;;;;;;;-145.18;100.00;60484.78;5020155;28;20268;-67
2021/12/08 00:59:26;;;;;;;5.23;1.37;;;;;;;-145.18;100.00;60484.78;5023340;28;20106;-66
2021/12/08 01:01:51;;;;;;;2.50;1.20;;;;;;;-145.18;100.00;60484.78;5022538;28;20672;-66
2021/12/08 01:04:17;;;;;;;4.20;1.70;;;;;;;-145.18;100.00;60484.78;5023112;28;20137;-67
2021/12/08 01:06:43;;;;;;;2.47;1.20;;;;;;;-145.18;100.00;60484.78;5020452;28;20037;-67
2021/12/08 01:09:12;;;;;;;3.50;1.40;;;;;;;-145.18;100.00;60484.78;5021431;28;20021;-67
2021/12/08 01:11:38;;;;;;;2.13;0.90;;;;;;;-145.18;100.00;60484.78;5018295;28;21007;-67
2021/12/08 01:14:04;;;;;;;5.60;1.40;;;;;;;-145.18;100.00;60484.78;5018580;28;20284;-66
2021/12/08 01:16:30;;;;;;;5.30;1.80;;;;;;;-145.18;100.00;60484.78;5022753;28;21055;-67
2021/12/08 01:18:55;;;;;;;5.03;1.60;;;;;;;-145.18;100.00;60484.78;5017057;28;20274;-66
2021/12/08 01:21:21;;;;;;;4.50;1.50;;;;;;;-145.18;100.00;60484.78;5017823;28;20741;-67
2021/12/08 01:23:47;;;;;;;4.17;1.40;;;;;;;-145.18;100.00;60484.78;5017977;28;20095;-67
2021/12/08 01:26:12;;;;;;;2.70;1.30;;;;;;;-145.18;100.00;60484.78;5017750;28;20029;-66
2021/12/08 01:28:39;;;;;;;3.53;1.20;;;;;;;-145.18;100.00;60484.78;5021531;28;20025;-66
2021/12/08 01:31:05;;;;;;;4.63;1.70;;;;;;;-145.18;100.00;60484.78;5022781;28;20502;-67
2021/12/08 01:33:33;;;;;;;7.70;2.10;;;;;;;-145.18;100.00;60484.78;5022181;28;20351;-67
2021/12/08 01:36:02;;;;;;;7.70;2.07;;;;;;;-145.18;100.00;60484.78;5022978;28;20326;-67
2021/12/08 01:38:28;;;;;;;3.97;1.80;;;;;;;-145.18;100.00;60484.78;5021608;28;20367;-67
2021/12/08 01:40:54;;;;;;;3.63;1.40;;;;;;;-145.18;100.00;60484.78;5019887;28;20907;-67
2021/12/08 01:43:27;;;;;;;4.20;1.87;;;;;;;-145.18;100.00;60484.78;5021117;28;20029;-67
2021/12/08 01:46:06;;;;;;;6.73;1.97;;;;;;;-145.18;100.00;60484.78;5021225;28;20304;-67
2021/12/08 01:48:38;;;;;;;11.53;2.20;;;;;;;-145.18;100.00;60484.78;5021938;28;20363;-67
2021/12/08 01:51:05;;;;;;;;;;;;;;;-145.18;100.00;60484.78;5020351;28;20288;-68
2021/12/08 01:53:31;;;;;;;8.23;2.03;;;;;;;-145.18;100.00;60484.78;5021324;28;20493;-68
2021/12/08 01:55:56;;;;;;;4.87;2.10;;;;;;;-145.18;100.00;60484.78;5017471;28;20287;-68
2021/12/08 01:58:22;;;;;;;4.17;1.83;;;;;;;-145.18;100.00;60484.78;5016249;28;20036;-68
2021/12/08 02:01:01;;;;;;;3.17;1.63;;;;;;;-145.18;100.00;60484.78;5019605;28;20058;-68
2021/12/08 02:03:28;;;;;;;5.93;2.07;;;;;;;-145.18;100.00;60484.78;5020231;28;20284;-68
2021/12/08 02:05:54;;;;;;;5.63;1.53;;;;;;;-145.18;100.00;60484.78;5023623;28;20753;-68
2021/12/08 02:08:20;;;;;;;6.33;2.47;;;;;;;-145.18;100.00;60484.78;5016492;28;20772;-67
2021/12/08 02:10:46;;;;;;;7.03;1.83;;;;;;;-145.18;100.00;60484.78;5022617;28;20724;-67
2021/12/08 02:13:12;;;;;;;6.37;1.57;;;;;;;-145.18;100.00;60484.78;5024027;28;20260;-67
2021/12/08 02:15:38;;;;;;;4.80;1.83;;;;;;;-145.18;100.00;60484.78;5014639;28;20029;-67
2021/12/08 02:18:07;;;;;;;4.20;1.40;;;;;;;-145.18;100.00;60484.78;5020792;28;20343;-67
2021/12/08 02:20:33;;;;;;;4.70;2.07;;;;;;;-145.18;100.00;60484.78;5021248;28;20283;-67
2021/12/08 02:22:58;;;;;;;5.80;1.93;;;;;;;-145.18;100.00;60484.78;5019326;28;20268;-68
2021/12/08 02:25:27;;;;;;;8.20;1.60;;;;;;;-145.18;100.00;60484.78;5013333;28;20268;-68
2021/12/08 02:27:55;;;;;;;2.33;1.17;;;;;;;-145.18;100.00;60484.78;5018187;28;20028;-68
2021/12/08 02:49:24;;;;;;;10.53;1.70;;;;;;;-145.18;100.00;60484.78;4935233;28;20323;-67
2021/12/08 02:51:51;;;;;;;3.70;1.60;;;;;;;-145.18;100.00;60484.78;4936807;28;20635;-68
2021/12/08 02:54:18;;;;;;;4.83;1.63;;;;;;;-145.18;100.00;60484.78;4932993;28;20034;-68
2021/12/08 02:56:43;;;;;;;3.93;1.87;;;;;;;-145.18;100.00;60484.78;4939518;28;20755;-68
2021/12/08 02:59:09;;;;;;;4.20;1.80;;;;;;;-145.18;100.00;60484.78;4937291;28;20389;-68
2021/12/08 03:01:35;;;;;;;2.57;1.30;;;;;;;-145.18;100.00;60484.78;4936041;28;20113;-68
2021/12/08 03:04:01;;;;;;;4.47;1.83;;;;;;;-145.18;100.00;60484.78;4939796;28;20200;-68
2021/12/08 03:06:27;;;;;;;7.23;2.23;;;;;;;-145.18;100.00;60484.78;4944581;28;20377;-68
2021/12/08 03:08:52;;;;;;;5.73;2.30;;;;;;;-145.18;100.00;60484.78;4940745;28;20135;-68
2021/12/08 03:11:18;;;;;;;4.20;1.63;;;;;;;-145.18;100.00;60484.78;5014516;28;20105;-67
2021/12/08 03:13:57;;;;;;;4.47;2.00;;;;;;;-145.18;100.00;60484.78;5015108;28;20112;-68
2021/12/08 03:16:22;;;;;;;4.30;2.20;;;;;;;-145.18;100.00;60484.78;5018151;28;20044;-68
2021/12/08 03:18:48;;;;;;;7.13;2.23;;;;;;;-145.18;100.00;60484.78;5017397;28;20273;-68
2021/12/08 03:21:13;;;;;;;3.60;1.87;;;;;;;-145.18;100.00;60484.78;5021621;28;20474;-68
2021/12/08 03:23:54;;;;;;;5.27;1.93;;;;;;;-145.18;100.00;60484.78;5021936;28;20025;-68
2021/12/08 03:26:30;;;;;;;7.50;2.30;;;;;;;-145.18;100.00;60484.78;5021623;28;20030;-68
2021/12/08 03:29:06;;;;;;;4.87;2.20;;;;;;;-145.18;100.00;60484.78;5021005;28;20271;-68
2021/12/08 03:31:39;;;;;;;5.63;2.00;;;;;;;-145.18;100.00;60484.78;5018094;28;20276;-68
2021/12/08 03:34:05;;;;;;;6.50;2.23;;;;;;;-145.18;100.00;60484.78;5022013;28;20330;-68
2021/12/08 03:36:30;;;;;;;3.70;1.80;;;;;;;-145.18;100.00;60484.78;5018491;28;20918;-68
2021/12/08 03:38:56;;;;;;;5.20;2.70;;;;;;;-145.18;100.00;60484.78;5021723;28;20087;-68
2021/12/08 03:41:21;;;;;;;5.97;2.27;;;;;;;-145.18;100.00;60484.78;5021207;28;20036;-68
2021/12/08 03:43:47;;;;;;;7.17;2.43;;;;;;;-145.18;100.00;60484.78;5021458;28;20099;-68
2021/12/08 03:46:16;;;;;;;3.43;1.77;;;;;;;-145.18;100.00;60484.78;5020776;28;20042;-67
2021/12/08 03:48:48;;;;;;;6.47;2.20;;;;;;;-145.18;100.00;60484.78;5015890;28;20421;-68
2021/12/08 03:51:17;;;;;;;7.18;2.60;;;;;;;-145.18;100.00;60484.78;5014977;28;20276;-67
2021/12/08 03:53:43;;;;;;;6.97;2.47;;;;;;;-145.18;100.00;60484.78;5020944;28;20598;-68
2021/12/08 03:56:09;;;;;;;8.30;2.77;;;;;;;-145.18;100.00;60484.78;5017971;28;20493;-67
2021/12/08 03:58:35;;;;;;;6.00;2.43;;;;;;;-145.18;100.00;60484.78;5019156;28;20386;-68
2021/12/08 04:01:07;;;;;;;11.38;2.63;;;;;;;-145.18;100.00;60484.78;5018181;28;20053;-68
2021/12/08 04:03:34;;;;;;;4.90;2.30;;;;;;;-145.18;100.00;60484.78;5021713;28;20030;-68
2021/12/08 04:06:06;;;;;;;5.63;2.53;;;;;;;-145.18;100.00;60484.78;5022872;28;20826;-68
2021/12/08 04:08:42;;;;;;;;;;;;;;;-145.18;100.00;60484.78;5020476;28;20276;-68
2021/12/08 04:11:10;;;;;;;4.97;1.90;;;;;;;-145.18;100.00;60484.78;5020371;28;19915;-68
2021/12/08 04:13:42;;;;;;;4.30;2.13;;;;;;;-145.18;100.00;60484.78;5026998;28;20792;-67
2021/12/08 04:16:10;;;;;;;6.00;2.33;;;;;;;-145.18;100.00;60484.78;5026502;28;20760;-68
2021/12/08 04:18:35;;;;;;;5.03;2.23;;;;;;;-145.18;100.00;60484.78;5022731;28;20295;-68
2021/12/08 04:21:03;;;;;;;4.17;1.90;;;;;;;-145.18;100.00;60484.78;5020061;28;20264;-68
2021/12/08 04:23:35;;;;;;;7.10;1.93;;;;;;;-145.18;100.00;60484.78;5022721;28;20030;-67
2021/12/08 04:26:03;;;;;;;4.68;2.35;;;;;;;-145.18;100.00;60484.78;5027116;28;20292;-68
2021/12/08 04:28:32;;;;;;;5.23;1.83;;;;;;;-145.18;100.00;60484.78;5024160;28;20034;-68
2021/12/08 04:31:17;;;;;;;4.53;1.87;;;;;;;-145.18;100.00;60484.78;5017319;28;20260;-68
2021/12/08 04:33:43;;;;;;;5.87;2.30;;;;;;;-145.18;100.00;60484.78;5022811;28;20414;-67
2021/12/08 04:36:12;;;;;;;4.60;1.67;;;;;;;-145.18;100.00;60484.78;5024055;28;20369;-68
2021/12/08 04:38:41;;;;;;;6.70;2.10;;;;;;;-145.18;100.00;60484.78;5017553;28;20025;-68
2021/12/08 04:41:17;;;;;;;7.27;1.60;;;;;;;-145.18;100.00;60484.78;5019651;28;20279;-68
2021/12/08 04:44:06;;;;;;;3.87;1.77;;;;;;;-145.18;100.00;60484.78;5016994;28;20391;-68
2021/12/08 05:00:25;;;;;;;5.07;2.00;;;;;;;-145.18;100.00;60484.78;5019277;28;20271;-68
2021/12/08 05:03:18;;;;;;;4.37;1.80;;;;;;;-145.18;100.00;60484.78;5027925;28;20628;-68
2021/12/08 05:08:18;;;;;;;5.33;2.13;;;;;;;-145.18;100.00;60484.78;5018997;28;20022;-68
2021/12/08 05:10:46;;;;;;;7.40;2.93;;;;;;;-145.18;100.00;60484.78;5024448;28;20276;-68
2021/12/08 05:13:13;;;;;;;6.27;1.97;;;;;;;-145.18;100.00;60484.78;5019449;28;20323;-68
2021/12/08 05:15:52;;;;;;;4.70;1.70;;;;;;;-145.18;100.00;60484.78;5019147;28;20295;-68
2021/12/08 05:18:39;;;;;;;5.83;1.80;;;;;;;-145.18;100.00;60484.78;5014514;28;20335;-67
2021/12/08 05:21:17;;;;;;;4.30;1.40;;;;;;;-145.18;100.00;60484.78;5020474;28;20359;-68
2021/12/08 05:23:48;;;;;;;3.97;2.33;;;;;;;-145.18;100.00;60484.78;5021337;28;20272;-68
2021/12/08 05:26:19;;;;;;;3.47;1.70;;;;;;;-145.18;100.00;60484.78;5021382;28;20291;-68
2021/12/08 05:28:47;;;;;;;4.63;2.10;;;;;;;-145.18;100.00;60484.78;5018354;28;20326;-68
2021/12/08 05:31:18;;;;;;;5.97;2.33;;;;;;;-145.18;100.00;60484.78;5021225;28;20318;-68
2021/12/08 05:33:45;;;;;;;4.20;1.80;;;;;;;-145.18;100.00;60484.78;5023069;28;20276;-68
2021/12/08 05:36:13;;;;;;;5.00;2.03;;;;;;;-145.18;100.00;60484.78;5022810;28;20276;-68
2021/12/08 05:38:40;;;;;;;6.83;1.87;;;;;;;-145.18;100.00;60484.78;5020724;28;20335;-68
2021/12/08 05:41:20;;;;;;;8.40;2.67;;;;;;;-145.18;100.00;60484.78;5024606;28;20264;-68
2021/12/08 05:43:47;;;;;;;6.07;2.90;;;;;;;-145.18;100.00;60484.78;5021003;28;20676;-68
2021/12/08 05:46:13;;;;;;;3.70;1.53;;;;;;;-145.18;100.00;60484.78;5022309;28;20321;-68
2021/12/08 05:48:42;;;;;;;4.23;2.00;;;;;;;-145.18;100.00;60484.78;5022380;28;20291;-68
2021/12/08 05:51:12;;;;;;;5.73;1.80;;;;;;;-145.18;100.00;60484.78;5020673;28;20303;-68
2021/12/08 05:53:40;;;;;;;3.80;1.93;;;;;;;-145.18;100.00;60484.78;5020081;28;20334;-68
2021/12/08 05:56:07;;;;;;;5.67;2.27;;;;;;;-145.18;100.00;60484.78;5018576;28;20286;-68
2021/12/08 05:58:34;;;;;;;4.23;1.70;;;;;;;-145.18;100.00;60484.78;5018342;28;20276;-67
2021/12/08 06:01:05;;;;;;;5.67;2.20;;;;;;;-145.18;100.00;60484.78;5020245;28;20363;-67
2021/12/08 06:03:32;;;;;;;4.55;1.65;;;;;;;-145.18;100.00;60484.78;5016755;28;20287;-68
2021/12/08 06:05:58;;;;;;;4.00;2.03;;;;;;;-145.18;100.00;60484.78;5016345;28;20114;-68
2021/12/08 06:08:27;;;;;;;5.10;2.00;;;;;;;-145.18;100.00;60484.78;5016279;28;20807;-68
2021/12/08 06:10:54;;;;;;;3.37;1.60;;;;;;;-145.18;100.00;60484.78;5019303;28;20314;-68
2021/12/08 06:13:20;;;;;;;4.97;2.10;;;;;;;-145.18;100.00;60484.78;5021738;28;20275;-68
2021/12/08 06:15:47;;;;;;;4.17;1.80;;;;;;;-145.18;100.00;60484.78;5021126;28;20932;-67
2021/12/08 06:18:13;;;;;;;4.57;1.73;;;;;;;-145.18;100.00;60484.78;5021778;28;20025;-68
2021/12/08 06:20:39;;;;;;;4.33;1.60;;;;;;;-145.18;100.00;60484.78;5019965;28;20282;-68
2021/12/08 06:23:06;;;;;;;3.80;1.70;;;;;;;-145.18;100.00;60484.78;5021540;28;20023;-68
2021/12/08 06:25:33;;;;;;;3.00;1.50;;;;;;;-145.18;100.00;60484.78;5018226;28;20564;-68
2021/12/08 06:27:58;;;;;;;3.47;1.80;;;;;;;-145.18;100.00;60484.78;5023000;28;20380;-68
2021/12/08 06:30:28;;;;;;;4.07;1.70;;;;;;;-145.18;100.00;60484.78;5021285;28;21061;-68
2021/12/08 06:32:53;;;;;;;5.57;2.03;;;;;;;-145.18;100.00;60484.78;5022366;28;20455;-68
2021/12/08 06:35:33;;;;;;;5.30;1.67;;;;;;;-145.18;100.00;60484.78;5020375;28;20288;-68
2021/12/08 06:37:59;;;;;;;5.50;1.80;;;;;;;-145.18;100.00;60484.78;5019913;28;20018;-68
2021/12/08 06:40:39;;;;;;;4.07;1.93;;;;;;;-145.18;100.00;60484.78;5016769;28;20269;-68
2021/12/08 06:43:07;;;;;;;3.30;1.50;;;;;;;-145.18;100.00;60484.78;5017145;28;20097;-68
2021/12/08 06:45:37;;;;;;;4.53;1.80;;;;;;;-145.18;100.00;60484.78;5017332;28;20355;-68
2021/12/08 06:48:07;;;;;;;3.90;1.87;;;;;;;-145.18;100.00;60484.78;5020522;28;20295;-68
2021/12/08 06:50:44;;;;;;;3.37;1.60;;;;;;;-145.18;100.00;60484.78;5019663;28;20355;-68
2021/12/08 06:53:10;;;;;;;3.37;1.67;;;;;;;-145.18;100.00;60484.78;5021719;28;20303;-68
2021/12/08 06:55:58;;;;;;;3.60;1.50;;;;;;;-145.18;100.00;60484.78;5019865;28;20283;-68
2021/12/08 06:58:26;;;;;;;3.47;1.60;;;;;;;-145.18;100.00;60484.78;5020357;28;20164;-68
2021/12/08 07:06:47;;;;;;;3.70;1.70;;;;;;;-145.18;100.00;60484.78;4916265;29;20279;-68
2021/12/08 07:09:22;;;;;;;3.53;1.50;;;;;;;-145.18;100.00;60484.78;4925039;29;20370;-68
2021/12/08 07:11:52;;;;;;;3.67;1.77;;;;;;;-145.18;100.00;60484.78;4923398;29;20315;-68
2021/12/08 07:14:19;;;;;;;3.67;1.70;;;;;;;-145.18;100.00;60484.78;4928142;29;21070;-68
2021/12/08 07:16:48;;;;;;;4.60;1.80;;;;;;;-145.18;100.00;60484.78;4923050;29;20358;-68
2021/12/08 07:19:32;;;;;;;3.83;1.67;;;;;;;-145.18;100.00;60484.78;4922828;29;20716;-68
2021/12/08 07:22:00;;;;;;;5.33;1.90;;;;;;;-145.18;100.00;60484.78;4920349;29;20811;-68
2021/12/08 07:24:30;;;;;;;2.90;1.70;;;;;;;-145.18;100.00;60484.78;4939135;29;20306;-68
2021/12/08 07:26:59;;;;;;;3.40;1.77;;;;;;;-145.18;100.00;60484.78;4924527;29;20393;-68
2021/12/08 07:29:30;;;;;;;3.23;1.70;;;;;;;-145.18;100.00;60484.78;4927511;29;20339;-68
2021/12/08 07:32:00;;;;;;;2.87;1.60;;;;;;;-145.18;100.00;60484.78;4932534;29;20031;-68
2021/12/08 07:34:27;;;;;;;4.60;1.63;;;;;;;-145.18;100.00;60484.78;4923061;29;20326;-68
2021/12/08 07:37:00;;;;;;;2.77;1.43;;;;;;;-145.18;100.00;60484.78;4925975;29;20284;-68
2021/12/08 07:39:29;;;;;;;3.33;1.77;;;;;;;-145.18;100.00;60484.78;4932486;29;21072;-68
2021/12/08 07:42:04;;;;;;;3.93;1.73;;;;;;;-145.18;100.00;60484.78;5016335;28;20292;-68
2021/12/08 07:44:30;;;;;;;3.23;1.73;;;;;;;-145.18;100.00;60484.78;5024775;28;20268;-68
2021/12/08 07:47:02;;;;;;;3.97;1.90;;;;;;;-145.18;100.00;60484.78;5023970;28;20819;-68
2021/12/08 07:49:35;;;;;;;4.53;1.70;;;;;;;-145.18;100.00;60484.78;5025095;28;20029;-68
2021/12/08 07:52:13;;;;;;;3.07;1.57;;;;;;;-145.18;100.00;60484.78;5027337;28;20033;-68
2021/12/08 07:54:39;;;;;;;3.20;1.77;;;;;;;-145.18;100.00;60484.78;5023661;28;20271;-68
2021/12/08 07:57:08;;;;;;;4.40;1.90;;;;;;;-145.18;100.00;60484.78;5024096;28;20272;-68
2021/12/08 07:59:37;;;;;;;7.93;1.80;;;;;;;-145.18;100.00;60484.78;5019328;28;20980;-68
2021/12/08 08:02:07;;;;;;;3.83;1.63;;;;;;;-145.18;100.00;60484.78;5023989;28;20291;-68
2021/12/08 08:04:35;;;;;;;5.00;1.90;;;;;;;-145.18;100.00;60484.78;5023968;28;20292;-68
2021/12/08 08:07:01;;;;;;;6.07;2.10;;;;;;;-145.18;100.00;60484.78;5024454;28;20311;-68
2021/12/08 08:09:36;;;;;;;3.50;1.93;;;;;;;-145.18;100.00;60484.78;5023320;28;20104;-68
2021/12/08 08:12:06;;;;;;;3.63;1.67;;;;;;;-145.18;100.00;60484.78;5023091;28;20029;-68
2021/12/08 08:14:39;;;;;;;5.80;2.17;;;;;;;-145.18;100.00;60484.78;5023342;28;20345;-68
2021/12/08 08:17:08;;;;;;;4.20;1.70;;;;;;;-145.18;100.00;60484.78;5033761;28;20283;-68
2021/12/08 08:19:39;;;;;;;3.67;1.97;;;;;;;-145.18;100.00;60484.78;5026288;28;20084;-68
2021/12/08 08:22:10;;;;;;;4.63;1.80;;;;;;;-145.18;100.00;60484.78;5023249;28;20291;-68
2021/12/08 08:24:36;;;;;;;5.57;2.20;;;;;;;-145.18;100.00;60484.78;5024059;28;20487;-68
2021/12/08 08:27:04;;;;;;;4.90;1.90;;;;;;;-145.18;100.00;60484.78;5022818;28;20371;-68
2021/12/08 08:29:30;;;;;;;3.40;1.50;;;;;;;-145.18;100.00;60484.78;5023688;28;20025;-68
2021/12/08 08:32:00;;;;;;;4.53;2.00;;;;;;;-145.18;100.00;60484.78;5022298;28;20120;-68
2021/12/08 08:34:30;;;;;;;4.43;2.00;;;;;;;-145.18;100.00;60484.78;5023512;28;20108;-68
2021/12/08 08:36:55;;;;;;;3.50;1.77;;;;;;;-145.18;100.00;60484.78;5024123;28;20378;-68
2021/12/08 08:39:29;;;;;;;4.60;2.20;;;;;;;-145.18;100.00;60484.78;5023803;28;20280;-68
2021/12/08 08:42:01;;;;;;;5.50;1.80;;;;;;;-145.18;100.00;60484.78;5023674;28;20101;-68
2021/12/08 08:44:44;;;;;;;5.15;2.00;;;;;;;-145.18;100.00;60484.78;5023098;28;20033;-68
2021/12/08 08:47:15;;;;;;;3.70;1.80;;;;;;;-145.18;100.00;60484.78;5023473;28;20041;-68
2021/12/08 08:49:43;;;;;;;5.00;2.10;;;;;;;-145.18;100.00;60484.78;5023593;28;20859;-68
2021/12/08 08:52:08;;;;;;;5.13;1.90;;;;;;;-145.18;100.00;60484.78;5016020;28;20287;-68
2021/12/08 08:54:38;;;;;;;5.93;2.03;;;;;;;-145.18;100.00;60484.78;5025637;28;20628;-68
2021/12/08 08:57:17;;;;;;;5.87;2.17;;;;;;;-145.18;100.00;60484.78;5029423;28;20040;-68
2021/12/08 08:59:51;;;;;;;10.13;2.90;;;;;;;-145.18;100.00;60484.78;5029176;28;20272;-68
2021/12/08 09:02:25;;;;;;;3.77;1.80;;;;;;;-145.18;100.00;60484.78;5022827;28;20276;-68
2021/12/08 09:04:54;;;;;;;4.83;2.00;;;;;;;-145.18;100.00;60484.78;5024062;28;20292;-68
2021/12/08 09:07:26;;;;;;;4.10;2.17;;;;;;;-145.18;100.00;60484.78;5024968;28;20291;-68
2021/12/08 09:09:55;;;;;;;4.78;2.20;;;;;;;-145.18;100.00;60484.78;5032949;28;20676;-68
2021/12/08 09:12:35;;;;;;;4.17;1.93;;;;;;;-145.18;100.00;60484.78;5021949;28;20038;-68
2021/12/08 09:15:18;;;;;;;3.80;1.93;;;;;;;-145.18;100.00;60484.78;5021555;28;20535;-68
2021/12/08 09:17:46;;;;;;;;;;;;;;;-145.18;100.00;60484.78;5019477;28;20257;-68
2021/12/08 09:20:20;;;;;;;5.60;2.50;;;;;;;-145.18;100.00;60484.78;5024043;28;20736;-68
2021/12/08 09:22:57;;;;;;;5.00;2.30;;;;;;;-145.18;100.00;60484.78;5020927;28;20844;-68
2021/12/08 09:25:46;;;;;;;7.53;2.50;;;;;;;-145.18;100.00;60484.78;5022486;28;20829;-68
2021/12/08 09:28:31;;;;;;;4.87;2.33;;;;;;;-145.18;100.00;60484.78;5022754;28;20029;-68
2021/12/08 09:31:04;;;;;;;5.73;2.03;;;;;;;-145.18;100.00;60484.78;5022690;28;20029;-68
2021/12/08 09:33:39;;;;;;;4.30;2.27;;;;;;;-145.18;100.00;60484.78;5022393;28;20033;-68
2021/12/08 09:36:10;;;;;;;4.50;2.47;;;;;;;-145.18;100.00;60484.78;5022375;28;20450;-68
2021/12/08 09:38:45;;;;;;;5.83;2.43;;;;;;;-145.18;100.00;60484.78;5024117;28;20033;-68
2021/12/08 09:41:29;;;;;;;5.20;2.30;;;;;;;-145.18;100.00;60484.78;5014802;28;20508;-68
2021/12/08 09:44:01;;;;;;;10.60;3.43;;;;;;;-145.18;100.00;60484.78;5021641;28;20041;-68
2021/12/08 09:46:40;;;;;;;5.88;2.35;;;;;;;-145.18;100.00;60484.78;5020629;28;20046;-68
2021/12/08 09:49:08;;;;;;;5.60;2.57;;;;;;;-145.18;100.00;60484.78;5013259;28;20038;-68
2021/12/08 09:51:35;;;;;;;4.50;2.30;;;;;;;-145.18;100.00;60484.78;5022673;28;20379;-68
2021/12/08 09:54:01;;;;;;;5.30;2.23;;;;;;;-145.18;100.00;60484.78;5023092;28;20749;-68
2021/12/08 09:56:30;;;;;;;5.70;2.73;;;;;;;-145.18;100.00;60484.78;5021707;28;20029;-67
2021/12/08 09:58:56;;;;;;;6.60;2.60;;;;;;;-145.18;100.00;60484.78;5020585;28;20037;-68
2021/12/08 10:01:24;;;;;;;5.07;2.30;;;;;;;-145.18;100.00;60484.78;5021082;28;20040;-67
2021/12/08 10:03:54;;;;;;;5.77;2.73;;;;;;;-145.18;100.00;60484.78;5022643;28;20058;-68
2021/12/08 10:06:21;;;;;;;7.17;2.60;;;;;;;-145.18;100.00;60484.78;5021102;28;20112;-68
2021/12/08 10:08:48;;;;;;;5.90;2.60;;;;;;;-145.18;100.00;60484.78;5021643;28;20037;-68
2021/12/08 10:11:15;;;;;;;4.53;2.27;;;;;;;-145.18;100.00;60484.78;5021814;28;20485;-68
2021/12/08 10:13:41;;;;;;;6.83;2.90;;;;;;;-145.18;100.00;60484.78;5020957;28;20044;-68
2021/12/08 10:16:08;;;;;;;6.40;2.43;;;;;;;-145.18;100.00;60484.78;5021031;28;20044;-68
2021/12/08 10:18:34;;;;;;;6.20;2.33;;;;;;;-145.18;100.00;60484.78;5021980;28;20048;-68
2021/12/08 10:21:00;;;;;;;6.20;3.23;;;;;;;-145.18;100.00;60484.78;5021545;28;20056;-68
2021/12/08 10:23:32;;;;;;;6.33;3.07;;;;;;;-145.18;100.00;60484.78;5029095;28;20036;-68
2021/12/08 10:26:14;;;;;;;6.40;2.63;;;;;;;-145.18;100.00;60484.78;5024004;28;20033;-68
2021/12/08 10:28:41;;;;;;;7.45;2.50;;;;;;;-145.18;100.00;60484.78;5020922;28;20037;-68
2021/12/08 10:31:16;;;;;;;6.20;2.37;;;;;;;-145.18;100.00;60484.78;5021147;28;20025;-68
2021/12/08 10:36:36;;;;;;;6.50;2.80;;;;;;;-145.18;100.00;60484.78;5021795;28;20095;-68
2021/12/08 10:39:08;;;;;;;5.97;2.53;;;;;;;-145.18;100.00;60484.78;5022060;28;20536;-68
2021/12/08 10:42:00;;;;;;;5.80;2.50;;;;;;;-145.18;100.00;60484.78;5021031;28;20056;-68
2021/12/08 10:44:40;;;;;;;7.03;2.70;;;;;;;-145.18;100.00;60484.78;5021352;28;20068;-68
2021/12/08 10:47:08;;;;;;;7.07;2.83;;;;;;;-145.18;100.00;60484.78;5020641;28;20104;-68
2021/12/08 10:54:50;;;;;;;6.80;2.70;;;;;;;-145.18;100.00;60484.78;5022102;28;20036;-68
2021/12/08 10:57:44;;;;;;;5.87;2.40;;;;;;;-145.18;100.00;60484.78;5021814;28;20014;-68
2021/12/08 11:00:30;;;;;;;6.90;3.20;;;;;;;-145.18;100.00;60484.78;5019154;28;20033;-67
2021/12/08 11:02:59;;;;;;;7.57;2.90;;;;;;;-145.18;100.00;60484.78;5020899;28;20474;-68
2021/12/08 11:05:24;;;;;;;6.83;3.23;;;;;;;-145.18;100.00;60484.78;5021408;28;20052;-68
2021/12/08 11:08:02;;;;;;;7.37;2.60;;;;;;;-145.18;100.00;60484.78;5020589;28;20041;-68
2021/12/08 11:10:29;;;;;;;8.03;3.60;;;;;;;-145.18;100.00;60484.78;5016633;28;20110;-68
2021/12/08 11:12:57;;;;;;;5.73;2.93;;;;;;;-145.18;100.00;60484.78;5033165;28;20482;-68
2021/12/08 11:15:24;;;;;;;7.17;3.30;;;;;;;-145.18;100.00;60484.78;5013003;28;20288;-68
2021/12/08 11:18:08;;;;;;;6.40;3.30;;;;;;;-145.18;100.00;60484.78;5019180;28;20041;-68
2021/12/08 11:20:42;;;;;;;9.00;3.53;;;;;;;-145.18;100.00;60484.78;5016852;28;20079;-68
2021/12/08 11:23:10;;;;;;;6.33;2.87;;;;;;;-145.18;100.00;60484.78;5019394;28;20445;-68
2021/12/08 11:25:45;;;;;;;8.40;3.00;;;;;;;-145.18;100.00;60484.78;5016953;28;20128;-68
2021/12/08 11:28:24;;;;;;;5.90;3.10;;;;;;;-145.18;100.00;60484.78;5021024;28;20104;-68
2021/12/08 11:30:51;;;;;;;7.10;3.57;;;;;;;-145.18;100.00;60484.78;5020764;28;20036;-67
2021/12/08 11:33:21;;;;;;;6.63;3.03;;;;;;;-145.18;100.00;60484.78;5025814;28;20104;-67
2021/12/08 11:35:47;;;;;;;8.00;3.67;;;;;;;-145.18;100.00;60484.78;5019262;28;20045;-68
2021/12/08 11:38:13;;;;;;;7.07;3.00;;;;;;;-145.18;100.00;60484.78;5021294;28;20040;-67
2021/12/08 11:40:39;;;;;;;10.93;3.53;;;;;;;-145.18;100.00;60484.78;5019670;28;20032;-67
2021/12/08 11:43:15;;;;;;;10.67;3.57;;;;;;;-145.18;100.00;60484.78;5017253;28;20025;-67
2021/12/08 11:45:42;;;;;;;7.23;3.10;;;;;;;-145.18;100.00;60484.78;5009043;28;20182;-69
2021/12/08 11:48:25;;;;;;;5.77;2.63;;;;;;;-145.18;100.00;60484.78;5020547;28;20053;-66
2021/12/08 11:51:10;;;;;;;5.77;3.10;;;;;;;-145.18;100.00;60484.78;5019839;28;20029;-67
2021/12/08 11:53:37;;;;;;;7.07;2.83;;;;;;;-145.18;100.00;60484.78;5020573;28;20037;-67
2021/12/08 11:56:04;;;;;;;8.27;3.10;;;;;;;-145.18;100.00;60484.78;5020114;28;20025;-66
2021/12/08 11:58:29;;;;;;;9.33;3.03;;;;;;;-145.18;100.00;60484.78;5020753;28;20025;-66
2021/12/08 12:00:55;;;;;;;6.60;3.37;;;;;;;-145.18;100.00;60484.78;5019262;28;20104;-66
2021/12/08 12:03:20;;;;;;;7.47;3.17;;;;;;;-145.18;100.00;60484.78;5019480;28;20452;-66
2021/12/08 12:05:48;;;;;;;5.60;2.80;;;;;;;-145.18;100.00;60484.78;5019194;28;20045;-67
2021/12/08 12:08:19;;;;;;;6.83;3.23;;;;;;;-145.18;100.00;60484.78;5019686;28;20595;-67
2021/12/08 12:10:48;;;;;;;5.73;2.80;;;;;;;-145.18;100.00;60484.78;5019040;28;20079;-66